sensor_id;sensor_type;location;lat;lon;timestamp;P1;durP1;ratioP1;P2;durP2;ratioP2
69736;SDS011;64476;55.004;73.342;2023-05-10T00:00:34;45.00;;;33.07;;
69736;SDS011;64476;55.004;73.342;2023-05-10T00:03:36;54.22;;;32.63;;
69736;SDS011;64476;55.004;73.342;2023-05-10T00:06:37;49.10;;;32.75;;
69736;SDS011;64476;55.004;73.342;2023-05-10T00:09:39;70.13;;;34.15;;
69736;SDS011;64476;55.004;73.342;2023-05-10T00:12:41;49.67;;;33.55;;
69736;SDS011;64476;55.004;73.342;2023-05-10T00:15:43;46.95;;;32.03;;
69736;SDS011;64476;55.004;73.342;2023-05-10T00:18:44;56.28;;;31.48;;
69736;SDS011;64476;55.004;73.342;2023-05-10T00:21:46;51.72;;;31.63;;
69736;SDS011;64476;55.004;73.342;2023-05-10T00:24:48;57.38;;;32.05;;
69736;SDS011;64476;55.004;73.342;2023-05-10T00:27:49;46.95;;;30.65;;
69736;SDS011;64476;55.004;73.342;2023-05-10T00:30:51;50.85;;;32.35;;
69736;SDS011;64476;55.004;73.342;2023-05-10T00:33:53;65.88;;;33.80;;
69736;SDS011;64476;55.004;73.342;2023-05-10T00:36:54;52.25;;;33.00;;
69736;SDS011;64476;55.004;73.342;2023-05-10T00:39:57;50.37;;;32.00;;
69736;SDS011;64476;55.004;73.342;2023-05-10T00:42:58;47.20;;;32.10;;
69736;SDS011;64476;55.004;73.342;2023-05-10T00:46:01;48.35;;;31.48;;
69736;SDS011;64476;55.004;73.342;2023-05-10T00:49:03;50.08;;;32.38;;
69736;SDS011;64476;55.004;73.342;2023-05-10T00:52:05;49.22;;;31.38;;
69736;SDS011;64476;55.004;73.342;2023-05-10T00:55:07;59.33;;;33.05;;
69736;SDS011;64476;55.004;73.342;2023-05-10T00:58:10;52.53;;;34.10;;
69736;SDS011;64476;55.004;73.342;2023-05-10T01:01:13;59.08;;;31.95;;
69736;SDS011;64476;55.004;73.342;2023-05-10T01:04:15;50.13;;;31.98;;
69736;SDS011;64476;55.004;73.342;2023-05-10T01:07:18;48.03;;;31.57;;
69736;SDS011;64476;55.004;73.342;2023-05-10T01:10:25;45.40;;;30.80;;
69736;SDS011;64476;55.004;73.342;2023-05-10T01:13:31;59.13;;;33.38;;
69736;SDS011;64476;55.004;73.342;2023-05-10T01:16:37;72.30;;;31.08;;
69736;SDS011;64476;55.004;73.342;2023-05-10T01:19:40;60.30;;;31.33;;
69736;SDS011;64476;55.004;73.342;2023-05-10T01:33:05;61.80;;;29.67;;
69736;SDS011;64476;55.004;73.342;2023-05-10T01:36:31;61.08;;;31.25;;
69736;SDS011;64476;55.004;73.342;2023-05-10T01:43:21;65.68;;;30.55;;
69736;SDS011;64476;55.004;73.342;2023-05-10T01:46:35;42.83;;;27.70;;
69736;SDS011;64476;55.004;73.342;2023-05-10T01:49:49;36.50;;;27.73;;
69736;SDS011;64476;55.004;73.342;2023-05-10T01:53:00;62.03;;;31.25;;
69736;SDS011;64476;55.004;73.342;2023-05-10T01:56:04;55.73;;;31.57;;
69736;SDS011;64476;55.004;73.342;2023-05-10T01:59:15;54.25;;;28.60;;
69736;SDS011;64476;55.004;73.342;2023-05-10T02:02:21;56.53;;;28.92;;
69736;SDS011;64476;55.004;73.342;2023-05-10T02:05:24;63.53;;;28.90;;
69736;SDS011;64476;55.004;73.342;2023-05-10T02:08:26;53.40;;;30.85;;
69736;SDS011;64476;55.004;73.342;2023-05-10T02:11:29;53.90;;;30.30;;
69736;SDS011;64476;55.004;73.342;2023-05-10T02:14:32;48.72;;;29.33;;
69736;SDS011;64476;55.004;73.342;2023-05-10T02:17:37;57.20;;;28.77;;
69736;SDS011;64476;55.004;73.342;2023-05-10T02:20:44;58.05;;;31.02;;
69736;SDS011;64476;55.004;73.342;2023-05-10T02:23:48;80.45;;;30.80;;
69736;SDS011;64476;55.004;73.342;2023-05-10T02:26:53;53.25;;;30.35;;
69736;SDS011;64476;55.004;73.342;2023-05-10T02:29:59;65.55;;;30.33;;
69736;SDS011;64476;55.004;73.342;2023-05-10T02:33:02;52.35;;;29.35;;
69736;SDS011;64476;55.004;73.342;2023-05-10T02:36:09;70.87;;;30.57;;
69736;SDS011;64476;55.004;73.342;2023-05-10T02:39:11;65.95;;;29.52;;
69736;SDS011;64476;55.004;73.342;2023-05-10T02:45:21;63.80;;;30.52;;
69736;SDS011;64476;55.004;73.342;2023-05-10T02:48:27;66.30;;;31.67;;
69736;SDS011;64476;55.004;73.342;2023-05-10T02:51:30;63.60;;;29.77;;
69736;SDS011;64476;55.004;73.342;2023-05-10T02:54:45;65.03;;;30.00;;
69736;SDS011;64476;55.004;73.342;2023-05-10T02:57:52;62.83;;;28.65;;
69736;SDS011;64476;55.004;73.342;2023-05-10T03:00:59;61.77;;;29.23;;
69736;SDS011;64476;55.004;73.342;2023-05-10T03:04:02;116.28;;;31.48;;
69736;SDS011;64476;55.004;73.342;2023-05-10T03:07:04;91.43;;;29.87;;
69736;SDS011;64476;55.004;73.342;2023-05-10T03:10:06;68.90;;;31.02;;
69736;SDS011;64476;55.004;73.342;2023-05-10T03:20:36;52.67;;;28.92;;
69736;SDS011;64476;55.004;73.342;2023-05-10T03:24:11;77.07;;;29.50;;
69736;SDS011;64476;55.004;73.342;2023-05-10T03:27:18;68.00;;;28.77;;
69736;SDS011;64476;55.004;73.342;2023-05-10T03:30:24;89.10;;;31.20;;
69736;SDS011;64476;55.004;73.342;2023-05-10T03:33:26;76.20;;;27.20;;
69736;SDS011;64476;55.004;73.342;2023-05-10T03:36:28;67.90;;;26.50;;
69736;SDS011;64476;55.004;73.342;2023-05-10T03:39:30;77.10;;;28.92;;
69736;SDS011;64476;55.004;73.342;2023-05-10T03:42:34;55.13;;;25.00;;
69736;SDS011;64476;55.004;73.342;2023-05-10T03:45:35;42.58;;;25.60;;
69736;SDS011;64476;55.004;73.342;2023-05-10T03:48:39;43.05;;;24.90;;
69736;SDS011;64476;55.004;73.342;2023-05-10T03:51:54;56.43;;;27.33;;
69736;SDS011;64476;55.004;73.342;2023-05-10T03:54:55;59.17;;;26.58;;
69736;SDS011;64476;55.004;73.342;2023-05-10T03:57:58;97.47;;;28.42;;
69736;SDS011;64476;55.004;73.342;2023-05-10T04:01:00;69.45;;;27.02;;
69736;SDS011;64476;55.004;73.342;2023-05-10T04:04:03;81.68;;;29.00;;
69736;SDS011;64476;55.004;73.342;2023-05-10T04:07:06;56.30;;;25.57;;
69736;SDS011;64476;55.004;73.342;2023-05-10T04:10:09;72.55;;;28.95;;
69736;SDS011;64476;55.004;73.342;2023-05-10T04:13:11;77.80;;;27.15;;
69736;SDS011;64476;55.004;73.342;2023-05-10T04:16:13;46.90;;;26.33;;
69736;SDS011;64476;55.004;73.342;2023-05-10T04:19:14;49.40;;;23.80;;
69736;SDS011;64476;55.004;73.342;2023-05-10T04:22:16;75.95;;;26.05;;
69736;SDS011;64476;55.004;73.342;2023-05-10T04:25:18;44.30;;;22.85;;
69736;SDS011;64476;55.004;73.342;2023-05-10T04:28:20;70.32;;;27.95;;
69736;SDS011;64476;55.004;73.342;2023-05-10T04:31:31;55.88;;;23.67;;
69736;SDS011;64476;55.004;73.342;2023-05-10T04:35:11;70.70;;;23.63;;
69736;SDS011;64476;55.004;73.342;2023-05-10T04:38:54;47.78;;;21.42;;
69736;SDS011;64476;55.004;73.342;2023-05-10T04:45:29;52.83;;;23.23;;
69736;SDS011;64476;55.004;73.342;2023-05-10T04:48:32;52.92;;;20.83;;
69736;SDS011;64476;55.004;73.342;2023-05-10T04:55:10;39.33;;;20.02;;
69736;SDS011;64476;55.004;73.342;2023-05-10T04:58:19;57.65;;;21.65;;
69736;SDS011;64476;55.004;73.342;2023-05-10T05:01:21;76.03;;;22.48;;
69736;SDS011;64476;55.004;73.342;2023-05-10T05:04:31;59.52;;;22.24;;
69736;SDS011;64476;55.004;73.342;2023-05-10T05:07:33;84.18;;;21.92;;
69736;SDS011;64476;55.004;73.342;2023-05-10T05:10:34;61.03;;;21.10;;
69736;SDS011;64476;55.004;73.342;2023-05-10T05:13:36;57.97;;;21.30;;
69736;SDS011;64476;55.004;73.342;2023-05-10T05:16:40;335.52;;;31.10;;
69736;SDS011;64476;55.004;73.342;2023-05-10T05:19:42;164.57;;;24.83;;
69736;SDS011;64476;55.004;73.342;2023-05-10T05:22:47;213.02;;;24.63;;
69736;SDS011;64476;55.004;73.342;2023-05-10T05:25:48;299.70;;;30.70;;
69736;SDS011;64476;55.004;73.342;2023-05-10T05:28:50;167.15;;;24.77;;
69736;SDS011;64476;55.004;73.342;2023-05-10T05:31:55;49.05;;;19.10;;
69736;SDS011;64476;55.004;73.342;2023-05-10T05:34:57;177.73;;;24.95;;
69736;SDS011;64476;55.004;73.342;2023-05-10T05:38:00;98.07;;;24.02;;
69736;SDS011;64476;55.004;73.342;2023-05-10T05:41:02;47.10;;;19.37;;
69736;SDS011;64476;55.004;73.342;2023-05-10T05:44:04;49.38;;;20.02;;
69736;SDS011;64476;55.004;73.342;2023-05-10T05:47:07;63.60;;;24.05;;
69736;SDS011;64476;55.004;73.342;2023-05-10T05:53:10;68.72;;;21.25;;
69736;SDS011;64476;55.004;73.342;2023-05-10T05:56:12;54.35;;;21.92;;
69736;SDS011;64476;55.004;73.342;2023-05-10T05:59:14;53.58;;;20.38;;
69736;SDS011;64476;55.004;73.342;2023-05-10T06:02:18;89.68;;;23.27;;
69736;SDS011;64476;55.004;73.342;2023-05-10T06:05:19;54.15;;;20.48;;
69736;SDS011;64476;55.004;73.342;2023-05-10T06:08:22;51.17;;;20.30;;
69736;SDS011;64476;55.004;73.342;2023-05-10T06:11:24;38.83;;;19.95;;
69736;SDS011;64476;55.004;73.342;2023-05-10T06:14:28;95.95;;;20.88;;
69736;SDS011;64476;55.004;73.342;2023-05-10T06:17:31;53.97;;;20.38;;
69736;SDS011;64476;55.004;73.342;2023-05-10T06:20:32;33.75;;;18.67;;
69736;SDS011;64476;55.004;73.342;2023-05-10T06:23:34;44.00;;;20.48;;
69736;SDS011;64476;55.004;73.342;2023-05-10T06:26:36;33.08;;;18.45;;
69736;SDS011;64476;55.004;73.342;2023-05-10T06:29:38;32.60;;;18.77;;
69736;SDS011;64476;55.004;73.342;2023-05-10T06:32:45;44.72;;;19.45;;
69736;SDS011;64476;55.004;73.342;2023-05-10T06:35:47;40.67;;;18.17;;
69736;SDS011;64476;55.004;73.342;2023-05-10T06:38:49;26.73;;;17.27;;
69736;SDS011;64476;55.004;73.342;2023-05-10T06:41:52;23.23;;;16.80;;
69736;SDS011;64476;55.004;73.342;2023-05-10T06:44:54;35.03;;;16.65;;
69736;SDS011;64476;55.004;73.342;2023-05-10T06:47:56;37.90;;;18.50;;
69736;SDS011;64476;55.004;73.342;2023-05-10T06:50:57;30.40;;;17.17;;
69736;SDS011;64476;55.004;73.342;2023-05-10T06:54:00;44.00;;;17.77;;
69736;SDS011;64476;55.004;73.342;2023-05-10T06:57:03;32.37;;;17.23;;
69736;SDS011;64476;55.004;73.342;2023-05-10T07:00:06;25.75;;;16.50;;
69736;SDS011;64476;55.004;73.342;2023-05-10T07:03:08;37.40;;;16.40;;
69736;SDS011;64476;55.004;73.342;2023-05-10T07:06:09;21.50;;;15.15;;
69736;SDS011;64476;55.004;73.342;2023-05-10T07:09:11;33.13;;;19.05;;
69736;SDS011;64476;55.004;73.342;2023-05-10T07:12:14;33.97;;;15.27;;
69736;SDS011;64476;55.004;73.342;2023-05-10T07:15:16;38.65;;;16.20;;
69736;SDS011;64476;55.004;73.342;2023-05-10T07:18:17;44.53;;;15.15;;
69736;SDS011;64476;55.004;73.342;2023-05-10T07:21:19;42.70;;;16.02;;
69736;SDS011;64476;55.004;73.342;2023-05-10T07:24:28;37.70;;;15.07;;
69736;SDS011;64476;55.004;73.342;2023-05-10T07:27:32;21.90;;;14.33;;
69736;SDS011;64476;55.004;73.342;2023-05-10T07:30:34;29.20;;;15.27;;
69736;SDS011;64476;55.004;73.342;2023-05-10T07:33:35;24.92;;;14.77;;
69736;SDS011;64476;55.004;73.342;2023-05-10T07:36:37;23.40;;;13.98;;
69736;SDS011;64476;55.004;73.342;2023-05-10T07:39:42;21.52;;;14.57;;
69736;SDS011;64476;55.004;73.342;2023-05-10T07:42:44;30.75;;;15.02;;
69736;SDS011;64476;55.004;73.342;2023-05-10T07:45:46;21.95;;;15.20;;
69736;SDS011;64476;55.004;73.342;2023-05-10T07:48:47;21.42;;;15.05;;
69736;SDS011;64476;55.004;73.342;2023-05-10T07:51:49;30.13;;;20.58;;
69736;SDS011;64476;55.004;73.342;2023-05-10T07:54:58;23.13;;;16.13;;
69736;SDS011;64476;55.004;73.342;2023-05-10T07:58:00;28.15;;;14.52;;
69736;SDS011;64476;55.004;73.342;2023-05-10T08:01:02;20.08;;;13.98;;
69736;SDS011;64476;55.004;73.342;2023-05-10T08:04:04;28.23;;;16.20;;
69736;SDS011;64476;55.004;73.342;2023-05-10T08:07:06;63.47;;;16.17;;
69736;SDS011;64476;55.004;73.342;2023-05-10T08:10:08;25.67;;;14.35;;
69736;SDS011;64476;55.004;73.342;2023-05-10T08:13:10;45.47;;;15.52;;
69736;SDS011;64476;55.004;73.342;2023-05-10T08:16:12;26.80;;;15.23;;
69736;SDS011;64476;55.004;73.342;2023-05-10T08:19:14;32.88;;;15.70;;
69736;SDS011;64476;55.004;73.342;2023-05-10T08:22:21;23.48;;;15.05;;
69736;SDS011;64476;55.004;73.342;2023-05-10T08:25:23;26.42;;;14.25;;
69736;SDS011;64476;55.004;73.342;2023-05-10T08:28:25;33.67;;;13.90;;
69736;SDS011;64476;55.004;73.342;2023-05-10T08:31:29;26.90;;;14.07;;
69736;SDS011;64476;55.004;73.342;2023-05-10T08:34:31;28.96;;;16.36;;
69736;SDS011;64476;55.004;73.342;2023-05-10T08:37:33;25.88;;;16.13;;
69736;SDS011;64476;55.004;73.342;2023-05-10T08:40:41;47.28;;;14.32;;
69736;SDS011;64476;55.004;73.342;2023-05-10T08:43:43;21.45;;;13.88;;
69736;SDS011;64476;55.004;73.342;2023-05-10T08:46:47;25.63;;;12.77;;
69736;SDS011;64476;55.004;73.342;2023-05-10T08:49:52;23.00;;;13.73;;
69736;SDS011;64476;55.004;73.342;2023-05-10T08:53:01;92.32;;;16.70;;
69736;SDS011;64476;55.004;73.342;2023-05-10T08:56:07;25.83;;;13.45;;
69736;SDS011;64476;55.004;73.342;2023-05-10T08:59:09;29.38;;;13.98;;
69736;SDS011;64476;55.004;73.342;2023-05-10T09:02:11;30.02;;;13.15;;
69736;SDS011;64476;55.004;73.342;2023-05-10T09:05:14;26.27;;;13.23;;
69736;SDS011;64476;55.004;73.342;2023-05-10T09:08:17;38.92;;;13.93;;
69736;SDS011;64476;55.004;73.342;2023-05-10T09:11:19;39.67;;;13.40;;
69736;SDS011;64476;55.004;73.342;2023-05-10T09:14:31;40.70;;;12.95;;
69736;SDS011;64476;55.004;73.342;2023-05-10T09:17:35;25.60;;;10.57;;
69736;SDS011;64476;55.004;73.342;2023-05-10T09:20:38;27.30;;;11.97;;
69736;SDS011;64476;55.004;73.342;2023-05-10T09:23:43;32.65;;;12.38;;
69736;SDS011;64476;55.004;73.342;2023-05-10T09:27:05;41.43;;;14.17;;
69736;SDS011;64476;55.004;73.342;2023-05-10T09:30:08;33.92;;;13.52;;
69736;SDS011;64476;55.004;73.342;2023-05-10T09:33:11;35.58;;;11.43;;
69736;SDS011;64476;55.004;73.342;2023-05-10T09:36:12;39.78;;;12.65;;
69736;SDS011;64476;55.004;73.342;2023-05-10T09:39:14;19.67;;;11.32;;
69736;SDS011;64476;55.004;73.342;2023-05-10T09:42:18;16.98;;;9.88;;
69736;SDS011;64476;55.004;73.342;2023-05-10T09:45:19;42.97;;;10.82;;
69736;SDS011;64476;55.004;73.342;2023-05-10T09:48:23;51.33;;;12.27;;
69736;SDS011;64476;55.004;73.342;2023-05-10T09:51:26;37.33;;;11.00;;
69736;SDS011;64476;55.004;73.342;2023-05-10T09:54:30;76.14;;;13.52;;
69736;SDS011;64476;55.004;73.342;2023-05-10T09:57:33;18.95;;;10.30;;
69736;SDS011;64476;55.004;73.342;2023-05-10T10:00:35;54.17;;;12.32;;
69736;SDS011;64476;55.004;73.342;2023-05-10T10:03:41;36.65;;;10.32;;
69736;SDS011;64476;55.004;73.342;2023-05-10T10:06:58;27.88;;;10.20;;
69736;SDS011;64476;55.004;73.342;2023-05-10T10:10:01;21.98;;;9.35;;
69736;SDS011;64476;55.004;73.342;2023-05-10T10:13:04;65.77;;;10.83;;
69736;SDS011;64476;55.004;73.342;2023-05-10T10:16:10;24.02;;;10.57;;
69736;SDS011;64476;55.004;73.342;2023-05-10T10:19:12;19.15;;;8.65;;
69736;SDS011;64476;55.004;73.342;2023-05-10T10:22:15;38.63;;;9.47;;
69736;SDS011;64476;55.004;73.342;2023-05-10T10:25:18;45.40;;;20.07;;
69736;SDS011;64476;55.004;73.342;2023-05-10T10:31:47;19.03;;;9.10;;
69736;SDS011;64476;55.004;73.342;2023-05-10T10:35:04;29.85;;;8.75;;
69736;SDS011;64476;55.004;73.342;2023-05-10T10:38:08;29.35;;;10.13;;
69736;SDS011;64476;55.004;73.342;2023-05-10T10:41:10;21.70;;;8.65;;
69736;SDS011;64476;55.004;73.342;2023-05-10T10:51:30;18.45;;;8.73;;
69736;SDS011;64476;55.004;73.342;2023-05-10T10:54:34;24.63;;;10.53;;
69736;SDS011;64476;55.004;73.342;2023-05-10T11:00:41;14.93;;;9.20;;
69736;SDS011;64476;55.004;73.342;2023-05-10T11:07:20;24.23;;;9.73;;
69736;SDS011;64476;55.004;73.342;2023-05-10T11:10:24;16.92;;;8.15;;
69736;SDS011;64476;55.004;73.342;2023-05-10T11:13:43;20.48;;;8.48;;
69736;SDS011;64476;55.004;73.342;2023-05-10T11:16:46;16.98;;;9.80;;
69736;SDS011;64476;55.004;73.342;2023-05-10T11:23:11;23.85;;;10.80;;
69736;SDS011;64476;55.004;73.342;2023-05-10T11:26:17;13.95;;;8.45;;
69736;SDS011;64476;55.004;73.342;2023-05-10T11:33:01;18.08;;;9.00;;
69736;SDS011;64476;55.004;73.342;2023-05-10T11:36:05;23.23;;;10.02;;
69736;SDS011;64476;55.004;73.342;2023-05-10T11:39:12;25.90;;;8.90;;
69736;SDS011;64476;55.004;73.342;2023-05-10T11:42:13;28.53;;;8.40;;
69736;SDS011;64476;55.004;73.342;2023-05-10T11:45:15;27.27;;;8.48;;
69736;SDS011;64476;55.004;73.342;2023-05-10T11:48:19;19.63;;;8.33;;
69736;SDS011;64476;55.004;73.342;2023-05-10T11:51:24;24.70;;;8.57;;
69736;SDS011;64476;55.004;73.342;2023-05-10T11:54:28;8.57;;;6.88;;
69736;SDS011;64476;55.004;73.342;2023-05-10T11:57:30;23.38;;;8.25;;
69736;SDS011;64476;55.004;73.342;2023-05-10T12:00:32;18.90;;;8.13;;
69736;SDS011;64476;55.004;73.342;2023-05-10T12:03:42;16.20;;;8.13;;
69736;SDS011;64476;55.004;73.342;2023-05-10T12:06:53;28.13;;;10.93;;
69736;SDS011;64476;55.004;73.342;2023-05-10T12:13:31;13.77;;;6.10;;
69736;SDS011;64476;55.004;73.342;2023-05-10T12:16:36;16.53;;;7.33;;
69736;SDS011;64476;55.004;73.342;2023-05-10T12:20:12;46.53;;;7.40;;
69736;SDS011;64476;55.004;73.342;2023-05-10T12:23:51;14.15;;;7.05;;
69736;SDS011;64476;55.004;73.342;2023-05-10T12:26:54;34.33;;;6.73;;
69736;SDS011;64476;55.004;73.342;2023-05-10T12:29:58;19.43;;;7.90;;
69736;SDS011;64476;55.004;73.342;2023-05-10T12:36:04;29.63;;;6.57;;
69736;SDS011;64476;55.004;73.342;2023-05-10T12:39:07;24.45;;;7.13;;
69736;SDS011;64476;55.004;73.342;2023-05-10T12:42:09;16.83;;;6.10;;
69736;SDS011;64476;55.004;73.342;2023-05-10T12:45:12;26.92;;;6.85;;
69736;SDS011;64476;55.004;73.342;2023-05-10T12:48:14;60.20;;;7.72;;
69736;SDS011;64476;55.004;73.342;2023-05-10T12:51:16;21.05;;;7.93;;
69736;SDS011;64476;55.004;73.342;2023-05-10T12:54:28;14.68;;;6.45;;
69736;SDS011;64476;55.004;73.342;2023-05-10T12:58:07;23.73;;;6.72;;
69736;SDS011;64476;55.004;73.342;2023-05-10T13:01:09;19.20;;;6.93;;
69736;SDS011;64476;55.004;73.342;2023-05-10T13:04:17;8.18;;;5.97;;
69736;SDS011;64476;55.004;73.342;2023-05-10T13:07:19;16.33;;;6.53;;
69736;SDS011;64476;55.004;73.342;2023-05-10T13:10:24;21.80;;;6.70;;
69736;SDS011;64476;55.004;73.342;2023-05-10T13:13:26;19.17;;;7.07;;
69736;SDS011;64476;55.004;73.342;2023-05-10T13:16:28;16.83;;;7.03;;
69736;SDS011;64476;55.004;73.342;2023-05-10T13:19:30;15.74;;;6.28;;
69736;SDS011;64476;55.004;73.342;2023-05-10T13:22:32;42.67;;;7.80;;
69736;SDS011;64476;55.004;73.342;2023-05-10T13:25:34;17.63;;;6.97;;
69736;SDS011;64476;55.004;73.342;2023-05-10T13:29:08;17.48;;;6.88;;
69736;SDS011;64476;55.004;73.342;2023-05-10T13:32:09;18.60;;;6.20;;
69736;SDS011;64476;55.004;73.342;2023-05-10T13:38:45;21.27;;;6.78;;
69736;SDS011;64476;55.004;73.342;2023-05-10T13:41:48;10.97;;;6.90;;
69736;SDS011;64476;55.004;73.342;2023-05-10T13:44:50;21.47;;;6.50;;
69736;SDS011;64476;55.004;73.342;2023-05-10T13:47:56;28.42;;;7.40;;
69736;SDS011;64476;55.004;73.342;2023-05-10T13:51:02;19.00;;;6.93;;
69736;SDS011;64476;55.004;73.342;2023-05-10T13:57:44;22.27;;;6.47;;
69736;SDS011;64476;55.004;73.342;2023-05-10T14:00:47;15.13;;;6.95;;
69736;SDS011;64476;55.004;73.342;2023-05-10T14:03:49;24.95;;;7.50;;
69736;SDS011;64476;55.004;73.342;2023-05-10T14:06:50;17.02;;;7.57;;
69736;SDS011;64476;55.004;73.342;2023-05-10T14:09:53;20.80;;;7.17;;
69736;SDS011;64476;55.004;73.342;2023-05-10T14:12:55;21.15;;;7.68;;
69736;SDS011;64476;55.004;73.342;2023-05-10T14:15:57;18.95;;;6.70;;
69736;SDS011;64476;55.004;73.342;2023-05-10T14:19:01;21.05;;;7.50;;
69736;SDS011;64476;55.004;73.342;2023-05-10T14:22:07;23.88;;;7.03;;
69736;SDS011;64476;55.004;73.342;2023-05-10T14:25:09;37.30;;;7.53;;
69736;SDS011;64476;55.004;73.342;2023-05-10T14:28:42;26.42;;;7.32;;
69736;SDS011;64476;55.004;73.342;2023-05-10T14:31:44;37.17;;;9.27;;
69736;SDS011;64476;55.004;73.342;2023-05-10T14:34:45;30.23;;;8.93;;
69736;SDS011;64476;55.004;73.342;2023-05-10T14:37:47;73.25;;;12.32;;
69736;SDS011;64476;55.004;73.342;2023-05-10T14:40:49;46.95;;;14.32;;
69736;SDS011;64476;55.004;73.342;2023-05-10T14:43:50;47.88;;;16.88;;
69736;SDS011;64476;55.004;73.342;2023-05-10T14:46:53;69.22;;;20.50;;
69736;SDS011;64476;55.004;73.342;2023-05-10T14:49:54;47.58;;;15.27;;
69736;SDS011;64476;55.004;73.342;2023-05-10T14:52:57;51.55;;;16.45;;
69736;SDS011;64476;55.004;73.342;2023-05-10T14:56:00;66.43;;;14.98;;
69736;SDS011;64476;55.004;73.342;2023-05-10T14:59:04;52.85;;;14.18;;
69736;SDS011;64476;55.004;73.342;2023-05-10T15:02:06;34.55;;;10.65;;
69736;SDS011;64476;55.004;73.342;2023-05-10T15:05:09;30.52;;;9.98;;
69736;SDS011;64476;55.004;73.342;2023-05-10T15:08:12;27.92;;;10.15;;
69736;SDS011;64476;55.004;73.342;2023-05-10T15:11:14;31.08;;;10.40;;
69736;SDS011;64476;55.004;73.342;2023-05-10T15:14:15;27.23;;;12.57;;
69736;SDS011;64476;55.004;73.342;2023-05-10T15:17:17;26.17;;;9.73;;
69736;SDS011;64476;55.004;73.342;2023-05-10T15:20:19;34.50;;;8.43;;
69736;SDS011;64476;55.004;73.342;2023-05-10T15:23:21;21.25;;;8.32;;
69736;SDS011;64476;55.004;73.342;2023-05-10T15:26:25;29.23;;;9.80;;
69736;SDS011;64476;55.004;73.342;2023-05-10T15:29:27;31.42;;;11.38;;
69736;SDS011;64476;55.004;73.342;2023-05-10T15:32:29;29.08;;;11.77;;
69736;SDS011;64476;55.004;73.342;2023-05-10T15:35:31;40.33;;;12.17;;
69736;SDS011;64476;55.004;73.342;2023-05-10T15:38:34;34.70;;;12.75;;
69736;SDS011;64476;55.004;73.342;2023-05-10T15:41:37;32.63;;;13.93;;
69736;SDS011;64476;55.004;73.342;2023-05-10T15:44:39;26.02;;;12.48;;
69736;SDS011;64476;55.004;73.342;2023-05-10T15:47:41;28.42;;;12.48;;
69736;SDS011;64476;55.004;73.342;2023-05-10T15:50:42;25.45;;;12.27;;
69736;SDS011;64476;55.004;73.342;2023-05-10T15:53:45;38.03;;;12.25;;
69736;SDS011;64476;55.004;73.342;2023-05-10T15:57:20;21.50;;;13.38;;
69736;SDS011;64476;55.004;73.342;2023-05-10T16:00:28;21.55;;;8.88;;
69736;SDS011;64476;55.004;73.342;2023-05-10T16:03:30;17.60;;;8.25;;
69736;SDS011;64476;55.004;73.342;2023-05-10T16:06:33;31.38;;;11.68;;
69736;SDS011;64476;55.004;73.342;2023-05-10T16:09:35;39.73;;;12.07;;
69736;SDS011;64476;55.004;73.342;2023-05-10T16:12:38;27.27;;;11.52;;
69736;SDS011;64476;55.004;73.342;2023-05-10T16:15:40;21.23;;;12.30;;
69736;SDS011;64476;55.004;73.342;2023-05-10T16:18:43;39.67;;;10.75;;
69736;SDS011;64476;55.004;73.342;2023-05-10T16:21:44;31.27;;;9.65;;
69736;SDS011;64476;55.004;73.342;2023-05-10T16:24:47;22.40;;;9.15;;
69736;SDS011;64476;55.004;73.342;2023-05-10T16:27:49;18.55;;;7.57;;
69736;SDS011;64476;55.004;73.342;2023-05-10T16:30:51;27.67;;;6.50;;
69736;SDS011;64476;55.004;73.342;2023-05-10T16:33:52;31.33;;;6.82;;
69736;SDS011;64476;55.004;73.342;2023-05-10T16:40:29;36.43;;;7.17;;
69736;SDS011;64476;55.004;73.342;2023-05-10T16:43:40;29.33;;;7.28;;
69736;SDS011;64476;55.004;73.342;2023-05-10T16:46:42;41.15;;;8.43;;
69736;SDS011;64476;55.004;73.342;2023-05-10T16:49:44;29.73;;;6.70;;
69736;SDS011;64476;55.004;73.342;2023-05-10T16:52:46;17.40;;;7.65;;
69736;SDS011;64476;55.004;73.342;2023-05-10T16:55:47;14.68;;;6.65;;
69736;SDS011;64476;55.004;73.342;2023-05-10T16:58:49;14.95;;;6.68;;
69736;SDS011;64476;55.004;73.342;2023-05-10T17:01:54;26.65;;;7.30;;
69736;SDS011;64476;55.004;73.342;2023-05-10T17:04:56;29.08;;;7.47;;
69736;SDS011;64476;55.004;73.342;2023-05-10T17:07:58;28.58;;;6.38;;
69736;SDS011;64476;55.004;73.342;2023-05-10T17:11:00;13.33;;;7.07;;
69736;SDS011;64476;55.004;73.342;2023-05-10T17:14:03;15.02;;;7.20;;
69736;SDS011;64476;55.004;73.342;2023-05-10T17:17:05;10.07;;;6.85;;
69736;SDS011;64476;55.004;73.342;2023-05-10T17:20:11;8.93;;;6.25;;
69736;SDS011;64476;55.004;73.342;2023-05-10T17:23:13;10.80;;;6.45;;
69736;SDS011;64476;55.004;73.342;2023-05-10T17:26:14;16.83;;;6.60;;
69736;SDS011;64476;55.004;73.342;2023-05-10T17:29:17;10.85;;;7.10;;
69736;SDS011;64476;55.004;73.342;2023-05-10T17:32:18;11.05;;;6.68;;
69736;SDS011;64476;55.004;73.342;2023-05-10T17:35:30;15.07;;;7.17;;
69736;SDS011;64476;55.004;73.342;2023-05-10T17:38:32;22.00;;;6.80;;
69736;SDS011;64476;55.004;73.342;2023-05-10T17:41:34;13.15;;;6.97;;
69736;SDS011;64476;55.004;73.342;2023-05-10T17:44:35;16.63;;;6.83;;
69736;SDS011;64476;55.004;73.342;2023-05-10T17:47:40;11.23;;;6.43;;
69736;SDS011;64476;55.004;73.342;2023-05-10T17:50:43;11.13;;;6.60;;
69736;SDS011;64476;55.004;73.342;2023-05-10T17:53:46;19.30;;;7.22;;
69736;SDS011;64476;55.004;73.342;2023-05-10T18:00:23;17.70;;;7.43;;
69736;SDS011;64476;55.004;73.342;2023-05-10T18:06:36;26.55;;;7.78;;
69736;SDS011;64476;55.004;73.342;2023-05-10T18:09:39;29.13;;;7.82;;
69736;SDS011;64476;55.004;73.342;2023-05-10T18:12:40;17.48;;;8.15;;
69736;SDS011;64476;55.004;73.342;2023-05-10T18:15:42;14.50;;;7.80;;
69736;SDS011;64476;55.004;73.342;2023-05-10T18:18:44;14.35;;;7.13;;
69736;SDS011;64476;55.004;73.342;2023-05-10T18:21:45;18.73;;;6.87;;
69736;SDS011;64476;55.004;73.342;2023-05-10T18:24:48;40.83;;;7.72;;
69736;SDS011;64476;55.004;73.342;2023-05-10T18:27:50;9.13;;;6.40;;
69736;SDS011;64476;55.004;73.342;2023-05-10T18:30:52;14.77;;;6.28;;
69736;SDS011;64476;55.004;73.342;2023-05-10T18:33:54;14.93;;;6.80;;
69736;SDS011;64476;55.004;73.342;2023-05-10T18:36:55;63.75;;;8.63;;
69736;SDS011;64476;55.004;73.342;2023-05-10T18:39:57;17.17;;;7.77;;
69736;SDS011;64476;55.004;73.342;2023-05-10T18:43:01;22.90;;;7.38;;
69736;SDS011;64476;55.004;73.342;2023-05-10T18:46:03;19.15;;;7.75;;
69736;SDS011;64476;55.004;73.342;2023-05-10T18:49:05;20.45;;;6.82;;
69736;SDS011;64476;55.004;73.342;2023-05-10T18:52:08;12.55;;;7.25;;
69736;SDS011;64476;55.004;73.342;2023-05-10T18:55:13;15.00;;;7.07;;
69736;SDS011;64476;55.004;73.342;2023-05-10T18:58:15;20.92;;;7.30;;
69736;SDS011;64476;55.004;73.342;2023-05-10T19:01:16;10.07;;;7.33;;
69736;SDS011;64476;55.004;73.342;2023-05-10T19:04:18;21.83;;;7.72;;
69736;SDS011;64476;55.004;73.342;2023-05-10T19:07:20;26.67;;;7.07;;
69736;SDS011;64476;55.004;73.342;2023-05-10T19:10:21;17.80;;;6.83;;